Time;durP1;ratioP1;P1;durP2;ratioP2;P2;SDS_P1;SDS_P2;PMS_P1;PMS_P2;Temp;Humidity;BMP_temperature;BMP_pressure;BME280_temperature;BME280_humidity;BME280_pressure;Samples;Min_cycle;Max_cycle;Signal;HPM_P1;HPM_P2
2023/10/22 00:01:47;;;;;;;0.30;0.30;;;12.10;99.90;;;;;;5053174;28;20041;-84
2023/10/22 00:04:13;;;;;;;1.35;0.65;;;11.80;99.90;;;;;;5083113;28;20059;-85
2023/10/22 00:06:39;;;;;;;0.40;0.40;;;11.80;99.90;;;;;;5073210;28;20040;-88
2023/10/22 00:09:04;;;;;;;0.35;0.35;;;11.90;99.90;;;;;;5067928;28;20127;-84
2023/10/22 00:11:30;;;;;;;0.28;0.28;;;11.90;99.90;;;;;;5064593;28;20052;-85
2023/10/22 00:13:56;;;;;;;0.50;0.50;;;11.90;99.90;;;;;;5076464;28;20170;-84
2023/10/22 00:16:22;;;;;;;0.30;0.30;;;11.90;99.90;;;;;;5056472;28;20037;-85
2023/10/22 00:18:47;;;;;;;0.40;0.40;;;12.10;99.90;;;;;;5066468;28;20044;-85
2023/10/22 00:21:13;;;;;;;0.40;0.40;;;12.00;99.90;;;;;;5082238;28;20107;-86
2023/10/22 00:23:40;;;;;;;0.65;0.65;;;12.10;99.90;;;;;;5082993;28;20036;-84
2023/10/22 00:26:13;;;;;;;0.30;0.30;;;12.10;99.90;;;;;;5073628;28;20050;-84
2023/10/22 00:28:38;;;;;;;2.92;0.80;;;12.20;99.90;;;;;;5043009;28;20051;-84
2023/10/22 00:31:04;;;;;;;0.20;0.20;;;12.20;99.90;;;;;;5029837;28;20048;-83
2023/10/22 00:33:30;;;;;;;0.43;0.43;;;12.40;99.90;;;;;;5064930;28;20044;-83
2023/10/22 00:35:58;;;;;;;0.43;0.43;;;12.30;99.90;;;;;;5086365;28;20093;-85
2023/10/22 00:38:25;;;;;;;0.40;0.40;;;;;;;;;;5065356;28;20067;-84
2023/10/22 00:40:51;;;;;;;0.30;0.30;;;12.40;99.90;;;;;;5075925;28;20049;-84
2023/10/22 00:43:17;;;;;;;0.40;0.40;;;12.50;99.90;;;;;;5050726;28;20048;-82
2023/10/22 00:45:42;;;;;;;0.25;0.25;;;13.10;99.90;;;;;;5069246;28;20048;-86
2023/10/22 00:48:09;;;;;;;0.40;0.40;;;12.80;99.90;;;;;;5091646;28;20040;-84
2023/10/22 00:50:39;;;;;;;0.30;0.30;;;12.40;99.90;;;;;;5083368;28;20039;-84
2023/10/22 00:53:07;;;;;;;0.30;0.30;;;10.90;99.90;;;;;;5066222;28;20060;-84
2023/10/22 00:55:40;;;;;;;0.40;0.40;;;12.40;99.90;;;;;;5086657;28;20069;-84
2023/10/22 00:58:07;;;;;;;0.30;0.30;;;12.40;99.90;;;;;;5083352;28;20048;-85
2023/10/22 01:00:34;;;;;;;0.30;0.30;;;12.40;99.90;;;;;;5050413;28;20048;-85
2023/10/22 01:03:01;;;;;;;0.20;0.20;;;12.40;99.90;;;;;;5051132;28;20503;-85
2023/10/22 01:05:28;;;;;;;0.32;0.32;;;12.60;99.90;;;;;;5075788;28;20044;-85
2023/10/22 01:07:54;;;;;;;0.30;0.30;;;12.40;99.90;;;;;;5065169;28;20047;-85
2023/10/22 01:10:21;;;;;;;0.30;0.30;;;12.40;99.90;;;;;;5061636;28;20046;-83
2023/10/22 01:12:47;;;;;;;0.17;0.17;;;12.40;99.90;;;;;;5052134;28;20087;-84
2023/10/22 01:15:12;;;;;;;0.30;0.30;;;12.50;99.90;;;;;;5086943;28;20395;-82
2023/10/22 01:17:43;;;;;;;0.20;0.20;;;12.60;99.90;;;;;;5059571;28;20380;-85
2023/10/22 01:20:09;;;;;;;0.82;0.82;;;12.60;99.90;;;;;;5062586;28;20055;-84
2023/10/22 01:22:35;;;;;;;;;;;12.60;99.90;;;;;;5066229;28;20055;-82
2023/10/22 01:25:01;;;;;;;1.10;1.10;;;12.50;99.90;;;;;;5064685;28;19920;-82
2023/10/22 01:27:31;;;;;;;0.20;0.20;;;12.40;99.90;;;;;;5068995;28;20500;-85
2023/10/22 01:29:57;;;;;;;0.30;0.30;;;12.40;99.90;;;;;;5064685;28;20044;-85
2023/10/22 01:32:23;;;;;;;0.40;0.40;;;12.50;99.90;;;;;;5069825;28;20055;-83
2023/10/22 01:34:49;;;;;;;0.30;0.30;;;12.50;99.90;;;;;;5049326;28;20055;-83
2023/10/22 01:37:15;;;;;;;0.47;0.47;;;12.50;99.90;;;;;;5067479;28;20040;-84
2023/10/22 01:39:41;;;;;;;0.40;0.40;;;12.60;99.90;;;;;;5070139;28;20567;-84
2023/10/22 01:42:07;;;;;;;0.20;0.20;;;12.60;99.90;;;;;;5049710;28;20055;-82
2023/10/22 01:44:35;;;;;;;0.40;0.40;;;12.50;99.90;;;;;;5072072;28;20111;-85
2023/10/22 01:47:02;;;;;;;0.32;0.32;;;12.50;99.90;;;;;;5074914;28;20056;-82
2023/10/22 01:49:28;;;;;;;0.30;0.30;;;12.50;99.90;;;;;;5038658;28;20052;-83
2023/10/22 01:51:54;;;;;;;0.30;0.30;;;12.40;99.90;;;;;;5072178;28;20170;-84
2023/10/22 01:54:26;;;;;;;0.30;0.30;;;12.40;99.90;;;;;;5042680;28;20102;-83
2023/10/22 01:56:52;;;;;;;0.30;0.30;;;12.40;99.90;;;;;;5050064;28;20045;-84
2023/10/22 01:59:17;;;;;;;0.30;0.30;;;12.40;99.90;;;;;;5077321;28;20067;-82
2023/10/22 02:01:43;;;;;;;0.30;0.30;;;12.40;99.90;;;;;;5078625;28;20055;-84
2023/10/22 02:04:09;;;;;;;;;;;12.30;99.90;;;;;;5078434;28;20072;-84
2023/10/22 02:06:35;;;;;;;0.30;0.30;;;12.30;99.90;;;;;;5086203;28;19995;-83
2023/10/22 02:09:00;;;;;;;0.40;0.40;;;12.10;99.90;;;;;;5061361;28;20052;-84
2023/10/22 02:11:27;;;;;;;0.40;0.40;;;12.00;99.90;;;;;;5060330;28;20052;-85
2023/10/22 02:13:53;;;;;;;0.30;0.30;;;12.00;99.90;;;;;;5070928;28;20057;-85
2023/10/22 02:16:19;;;;;;;0.32;0.32;;;12.00;99.90;;;;;;5058698;28;20052;-85
2023/10/22 02:18:45;;;;;;;0.40;0.40;;;12.10;99.90;;;;;;5054721;28;20079;-84
2023/10/22 02:21:11;;;;;;;0.45;0.45;;;11.80;99.90;;;;;;5092821;28;20818;-83
2023/10/22 02:23:39;;;;;;;0.40;0.40;;;11.80;99.90;;;;;;5057229;28;20113;-86
2023/10/22 02:26:05;;;;;;;0.30;0.30;;;12.10;99.90;;;;;;5071795;28;20399;-84
2023/10/22 02:28:32;;;;;;;;;;;11.60;99.90;;;;;;5074292;28;20044;-84
2023/10/22 02:30:58;;;;;;;0.40;0.40;;;11.60;99.90;;;;;;5061824;28;19977;-85
2023/10/22 02:33:24;;;;;;;0.30;0.30;;;10.10;99.90;;;;;;5073046;28;20052;-83
2023/10/22 02:35:51;;;;;;;0.43;0.43;;;11.50;99.90;;;;;;5066494;28;20055;-85
2023/10/22 02:38:18;;;;;;;0.32;0.32;;;11.40;99.90;;;;;;5070402;28;20483;-84
2023/10/22 02:40:48;;;;;;;0.40;0.40;;;11.60;99.90;;;;;;5066948;28;20056;-83
2023/10/22 02:43:16;;;;;;;0.30;0.30;;;11.50;99.90;;;;;;5075206;28;20551;-84
2023/10/22 02:45:53;;;;;;;0.30;0.30;;;11.40;99.90;;;;;;5068346;28;20056;-85
2023/10/22 02:48:19;;;;;;;0.20;0.20;;;11.30;99.90;;;;;;5064179;28;20055;-84
2023/10/22 02:50:46;;;;;;;0.30;0.30;;;11.40;99.90;;;;;;5068382;28;20047;-83
2023/10/22 02:53:12;;;;;;;;;;;11.40;99.90;;;;;;5093229;27;20173;-84
2023/10/22 02:55:38;;;;;;;3.20;0.73;;;11.30;99.90;;;;;;5114608;27;19920;-83
2023/10/22 02:58:05;;;;;;;0.35;0.35;;;11.30;99.90;;;;;;5103316;28;20148;-83
2023/10/22 03:00:32;;;;;;;0.40;0.40;;;11.30;99.90;;;;;;5110706;27;20067;-82
2023/10/22 03:02:58;;;;;;;0.40;0.40;;;11.40;99.90;;;;;;5116547;27;20039;-84
2023/10/22 03:05:24;;;;;;;0.40;0.40;;;11.30;99.90;;;;;;5118670;27;20044;-84
2023/10/22 03:07:50;;;;;;;0.40;0.40;;;11.30;99.90;;;;;;5116432;27;20054;-83
2023/10/22 03:10:16;;;;;;;0.65;0.60;;;11.30;99.90;;;;;;5073744;28;20031;-82
2023/10/22 03:12:42;;;;;;;;;;;11.30;99.90;;;;;;5096846;28;20070;-82
2023/10/22 03:15:08;;;;;;;0.40;0.40;;;11.30;99.90;;;;;;5121325;27;19924;-84
2023/10/22 03:17:34;;;;;;;0.30;0.30;;;11.30;99.90;;;;;;5098710;28;20852;-83
2023/10/22 03:20:00;;;;;;;1.10;1.00;;;11.30;99.90;;;;;;5103647;28;20093;-85
2023/10/22 03:22:26;;;;;;;0.40;0.40;;;11.30;99.90;;;;;;5111556;27;20039;-83
2023/10/22 03:24:52;;;;;;;0.40;0.40;;;11.30;99.90;;;;;;5085159;28;20056;-85
2023/10/22 03:27:18;;;;;;;0.40;0.40;;;11.30;99.90;;;;;;5096168;28;20043;-82
2023/10/22 03:29:44;;;;;;;0.40;0.40;;;10.40;99.90;;;;;;5128400;27;20048;-85
2023/10/22 03:32:10;;;;;;;;;;;11.30;99.90;;;;;;5095572;28;20047;-83
2023/10/22 03:34:36;;;;;;;0.40;0.40;;;11.30;99.90;;;;;;5094916;28;19919;-83
2023/10/22 03:37:04;;;;;;;0.65;0.65;;;11.30;99.90;;;;;;5077859;28;20052;-83
2023/10/22 03:39:31;;;;;;;0.43;0.43;;;11.30;99.90;;;;;;5097478;28;20086;-83
2023/10/22 03:41:58;;;;;;;0.40;0.40;;;11.30;99.90;;;;;;5083960;28;20047;-85
2023/10/22 03:44:23;;;;;;;0.40;0.40;;;11.40;99.90;;;;;;5090859;28;20055;-84
2023/10/22 03:46:49;;;;;;;0.70;0.70;;;11.30;99.90;;;;;;5079330;28;20047;-84
2023/10/22 03:49:15;;;;;;;0.50;0.50;;;11.30;99.90;;;;;;5118854;27;20063;-84
2023/10/22 03:51:41;;;;;;;0.70;0.70;;;11.30;99.90;;;;;;5095675;28;20039;-84
2023/10/22 03:54:06;;;;;;;0.50;0.50;;;11.20;99.90;;;;;;5103351;28;20111;-83
2023/10/22 03:56:34;;;;;;;0.40;0.40;;;11.40;99.90;;;;;;5111249;27;20044;-84
2023/10/22 03:59:00;;;;;;;0.40;0.40;;;11.40;99.90;;;;;;5115990;27;20055;-83
2023/10/22 04:01:26;;;;;;;0.43;0.43;;;11.40;99.90;;;;;;5109036;27;20040;-84
2023/10/22 04:03:52;;;;;;;0.40;0.40;;;11.40;99.90;;;;;;5111830;27;20056;-84
2023/10/22 04:06:18;;;;;;;1.05;0.65;;;11.40;99.90;;;;;;5074237;28;20424;-82
2023/10/22 04:08:44;;;;;;;0.28;0.28;;;11.60;99.90;;;;;;5072132;28;20048;-83
2023/10/22 04:11:10;;;;;;;1.27;0.68;;;11.50;99.90;;;;;;5092860;28;20098;-84
2023/10/22 04:13:37;;;;;;;0.40;0.40;;;11.40;99.90;;;;;;5116236;27;20489;-83
2023/10/22 04:16:03;;;;;;;0.40;0.40;;;11.50;99.90;;;;;;5064741;28;20048;-83
2023/10/22 04:18:29;;;;;;;0.30;0.30;;;11.50;99.90;;;;;;5108124;27;20112;-84
2023/10/22 04:20:55;;;;;;;0.40;0.40;;;11.50;99.90;;;;;;5111180;27;20101;-83
2023/10/22 04:23:21;;;;;;;0.35;0.35;;;11.50;99.90;;;;;;5111373;28;20056;-83
2023/10/22 04:25:47;;;;;;;0.43;0.43;;;11.50;99.90;;;;;;5110282;27;20090;-82
2023/10/22 04:28:13;;;;;;;0.40;0.40;;;11.50;99.90;;;;;;5096094;28;20778;-83
2023/10/22 04:30:40;;;;;;;0.35;0.35;;;11.50;99.90;;;;;;5082845;28;20050;-82
2023/10/22 04:33:08;;;;;;;0.32;0.32;;;11.60;99.90;;;;;;5116676;27;20069;-85
2023/10/22 04:35:34;;;;;;;0.30;0.30;;;;;;;;;;5095909;28;20456;-85
2023/10/22 04:38:01;;;;;;;0.50;0.50;;;11.50;99.90;;;;;;5084004;27;20054;-84
2023/10/22 04:40:34;;;;;;;0.30;0.30;;;11.40;99.90;;;;;;5103918;27;20508;-83
2023/10/22 04:43:01;;;;;;;0.73;0.73;;;11.50;99.90;;;;;;5094166;28;20044;-85
2023/10/22 04:45:27;;;;;;;0.35;0.35;;;11.50;99.90;;;;;;5102902;27;20486;-84
2023/10/22 04:47:56;;;;;;;0.30;0.30;;;11.50;99.90;;;;;;5100683;28;20047;-83
2023/10/22 04:50:22;;;;;;;0.55;0.55;;;11.50;99.90;;;;;;5101751;28;20039;-85
2023/10/22 04:52:47;;;;;;;0.77;0.77;;;11.40;99.90;;;;;;5068300;28;20055;-84
2023/10/22 04:55:13;;;;;;;0.63;0.63;;;11.50;99.90;;;;;;5056732;28;20073;-84
2023/10/22 04:57:39;;;;;;;0.47;0.47;;;11.60;99.90;;;;;;5081124;28;20120;-84
2023/10/22 05:00:07;;;;;;;0.30;0.30;;;11.50;99.90;;;;;;5084225;28;20467;-84
2023/10/22 05:02:33;;;;;;;0.40;0.40;;;11.50;99.90;;;;;;5107238;27;20794;-83
2023/10/22 05:04:59;;;;;;;;;;;11.50;99.90;;;;;;5070306;28;20071;-83
2023/10/22 05:07:25;;;;;;;0.40;0.40;;;11.50;99.90;;;;;;5090198;28;19973;-84
2023/10/22 05:09:50;;;;;;;0.20;0.20;;;11.50;99.90;;;;;;5098956;28;20051;-85
2023/10/22 05:12:16;;;;;;;0.47;0.47;;;11.50;99.90;;;;;;5092018;28;20043;-84
2023/10/22 05:14:42;;;;;;;0.40;0.40;;;11.60;99.90;;;;;;5091559;28;20050;-85
2023/10/22 05:17:08;;;;;;;0.30;0.30;;;11.50;99.90;;;;;;5084467;28;20071;-85
2023/10/22 05:19:37;;;;;;;0.63;0.63;;;11.50;99.90;;;;;;5101608;28;20150;-84
2023/10/22 05:22:06;;;;;;;0.22;0.22;;;11.50;99.90;;;;;;5087480;28;20548;-85
2023/10/22 05:24:32;;;;;;;0.40;0.40;;;11.70;99.90;;;;;;5095956;28;20035;-85
2023/10/22 05:26:58;;;;;;;0.40;0.40;;;11.70;99.90;;;;;;5112858;27;20048;-83
2023/10/22 05:29:23;;;;;;;0.40;0.40;;;11.70;99.90;;;;;;5072168;28;20104;-85
2023/10/22 05:31:50;;;;;;;0.30;0.30;;;;;;;;;;5120241;27;20097;-84
2023/10/22 05:34:16;;;;;;;0.40;0.40;;;11.70;99.90;;;;;;5091854;28;20055;-85
2023/10/22 05:36:42;;;;;;;0.30;0.30;;;11.70;99.90;;;;;;5122117;27;20050;-85
2023/10/22 05:39:08;;;;;;;0.30;0.30;;;11.70;99.90;;;;;;5093194;28;20089;-83
2023/10/22 05:41:34;;;;;;;0.30;0.30;;;11.70;99.90;;;;;;5100521;28;20406;-84
2023/10/22 05:44:02;;;;;;;0.45;0.45;;;11.70;99.90;;;;;;5076853;28;20067;-85
2023/10/22 05:46:34;;;;;;;0.35;0.35;;;11.70;99.90;;;;;;5127712;27;20043;-85
2023/10/22 05:49:03;;;;;;;0.75;0.75;;;11.70;99.90;;;;;;5100178;28;20066;-85
2023/10/22 05:51:29;;;;;;;0.40;0.40;;;11.80;99.90;;;;;;5099527;28;20040;-84
2023/10/22 05:53:55;;;;;;;0.43;0.43;;;11.80;99.90;;;;;;5122883;28;20055;-83
2023/10/22 05:56:23;;;;;;;0.70;0.70;;;11.80;99.90;;;;;;5097645;28;20628;-84
2023/10/22 05:58:49;;;;;;;0.30;0.30;;;11.80;99.90;;;;;;5103323;28;20050;-85
2023/10/22 06:01:15;;;;;;;0.50;0.50;;;11.80;99.90;;;;;;5087128;28;20052;-83
2023/10/22 06:03:41;;;;;;;0.40;0.40;;;11.80;99.90;;;;;;5091450;28;20048;-84
2023/10/22 06:06:06;;;;;;;0.43;0.43;;;12.00;99.90;;;;;;5096619;28;20059;-84
2023/10/22 06:08:32;;;;;;;1.20;0.65;;;11.90;99.90;;;;;;5106199;28;20043;-84
2023/10/22 06:10:58;;;;;;;0.20;0.20;;;11.90;99.90;;;;;;5099151;28;20040;-82
2023/10/22 06:13:24;;;;;;;0.73;0.73;;;12.00;99.90;;;;;;5087270;28;20055;-84
2023/10/22 06:15:55;;;;;;;;;;;11.10;99.90;;;;;;5096913;28;20040;-85
2023/10/22 06:18:21;;;;;;;0.30;0.30;;;12.20;99.90;;;;;;5115886;28;19928;-84
2023/10/22 06:20:46;;;;;;;0.60;0.60;;;12.10;99.90;;;;;;5097814;28;20043;-86
2023/10/22 06:23:12;;;;;;;0.40;0.40;;;;;;;;;;5094149;28;20048;-85
2023/10/22 06:25:45;;;;;;;0.50;0.50;;;12.10;99.90;;;;;;5089580;28;20043;-87
2023/10/22 06:28:11;;;;;;;0.20;0.20;;;10.50;99.90;;;;;;5117144;28;20040;-89
2023/10/22 06:30:39;;;;;;;0.30;0.30;;;;;;;;;;5074155;28;20052;-90
2023/10/22 06:33:05;;;;;;;0.40;0.40;;;;;;;;;;5082118;28;20062;-90
2023/10/22 06:35:41;;;;;;;;;;;11.70;99.90;;;;;;5084034;28;20046;-90
2023/10/22 06:38:29;;;;;;;0.40;0.40;;;11.60;99.90;;;;;;5120341;28;19934;-90
2023/10/22 06:41:02;;;;;;;0.38;0.38;;;12.40;99.90;;;;;;5089358;28;20058;-90
2023/10/22 06:43:35;;;;;;;5.57;1.17;;;11.40;99.90;;;;;;5084680;28;20039;-90
2023/10/22 06:46:01;;;;;;;0.38;0.38;;;;;;;;;;5086504;28;20085;-89
2023/10/22 06:48:42;;;;;;;0.35;0.35;;;11.40;99.90;;;;;;5085130;27;20035;-92
2023/10/22 06:51:22;;;;;;;0.40;0.40;;;11.30;99.90;;;;;;5114799;28;20111;-89
2023/10/22 06:53:50;;;;;;;0.35;0.35;;;11.50;99.90;;;;;;5074287;28;20045;-90
2023/10/22 06:56:47;;;;;;;0.40;0.40;;;11.80;99.90;;;;;;5058587;28;20059;-92
2023/10/22 06:59:13;;;;;;;;;;;11.50;99.90;;;;;;5064551;28;20140;-89
2023/10/22 07:01:45;;;;;;;0.52;0.50;;;11.40;99.90;;;;;;5098261;28;19971;-89
2023/10/22 07:04:17;;;;;;;0.65;0.60;;;11.30;99.90;;;;;;5064706;28;20102;-90
2023/10/22 07:06:44;;;;;;;0.40;0.40;;;11.30;99.90;;;;;;5075676;28;20079;-90
2023/10/22 07:09:17;;;;;;;0.40;0.40;;;11.30;99.90;;;;;;5054012;28;20037;-87
2023/10/22 07:11:43;;;;;;;0.30;0.30;;;;;;;;;;5057560;28;20108;-88
2023/10/22 07:14:15;;;;;;;1.10;0.50;;;11.30;99.90;;;;;;5072166;28;20121;-87
2023/10/22 07:16:41;;;;;;;0.65;0.65;;;9.80;99.90;;;;;;5060409;28;20080;-88
2023/10/22 07:19:08;;;;;;;0.47;0.47;;;11.40;99.90;;;;;;5064896;28;20044;-88
2023/10/22 07:21:33;;;;;;;0.40;0.40;;;11.30;99.90;;;;;;5055691;28;20045;-87
2023/10/22 07:23:59;;;;;;;0.30;0.30;;;11.50;99.90;;;;;;5057990;28;20047;-88
2023/10/22 07:26:26;;;;;;;0.30;0.30;;;11.40;99.90;;;;;;5059829;28;20051;-87
2023/10/22 07:28:52;;;;;;;0.38;0.38;;;;;;;;;;5058495;28;20079;-88
2023/10/22 07:31:19;;;;;;;0.77;0.77;;;11.40;99.90;;;;;;5074590;28;20051;-85
2023/10/22 07:33:47;;;;;;;0.20;0.20;;;;;;;;;;5058509;28;20041;-87
2023/10/22 07:36:13;;;;;;;0.50;0.50;;;11.50;99.90;;;;;;5059820;28;20051;-87
2023/10/22 07:38:40;;;;;;;0.40;0.40;;;11.40;99.90;;;;;;5074043;28;20037;-86
2023/10/22 07:41:14;;;;;;;0.30;0.30;;;11.60;99.90;;;;;;5053614;28;20048;-87
2023/10/22 07:43:43;;;;;;;0.60;0.60;;;11.70;99.90;;;;;;5065168;28;20399;-86
2023/10/22 07:46:10;;;;;;;0.47;0.47;;;11.50;99.90;;;;;;5045001;28;20051;-85
2023/10/22 07:48:39;;;;;;;0.20;0.20;;;11.50;99.90;;;;;;5077499;28;20056;-86
2023/10/22 07:51:26;;;;;;;0.40;0.40;;;11.40;99.90;;;;;;5067360;28;20503;-84
2023/10/22 07:53:54;;;;;;;1.02;0.93;;;11.40;99.90;;;;;;5079097;28;20171;-85
2023/10/22 07:56:25;;;;;;;0.47;0.47;;;12.30;99.90;;;;;;5073433;28;20102;-84
2023/10/22 07:58:51;;;;;;;0.30;0.30;;;11.40;99.90;;;;;;5061155;28;20052;-89
2023/10/22 08:01:19;;;;;;;0.63;0.63;;;11.60;99.90;;;;;;5079777;28;20071;-88
2023/10/22 08:03:47;;;;;;;0.30;0.30;;;11.30;99.90;;;;;;5080653;28;20123;-88
2023/10/22 08:06:13;;;;;;;0.70;0.70;;;11.40;99.90;;;;;;5078142;28;20405;-86
2023/10/22 08:08:39;;;;;;;0.30;0.30;;;11.20;99.90;;;;;;5061976;28;20041;-87
2023/10/22 08:11:06;;;;;;;0.40;0.40;;;11.30;99.90;;;;;;5076698;28;20037;-88
2023/10/22 08:13:32;;;;;;;0.40;0.40;;;11.30;99.90;;;;;;5091361;28;20085;-87
2023/10/22 08:16:05;;;;;;;0.30;0.30;;;11.30;99.90;;;;;;5044881;28;20132;-88
2023/10/22 08:18:31;;;;;;;0.30;0.30;;;11.30;99.90;;;;;;5056017;28;20063;-87
2023/10/22 08:21:04;;;;;;;0.38;0.38;;;11.30;99.90;;;;;;5060107;28;20054;-88
2023/10/22 08:23:33;;;;;;;0.55;0.55;;;11.50;99.90;;;;;;5065692;28;20150;-87
2023/10/22 08:26:00;;;;;;;0.52;0.52;;;11.20;99.90;;;;;;5056416;28;20102;-87
2023/10/22 08:28:32;;;;;;;0.30;0.30;;;11.40;99.90;;;;;;5060534;28;20052;-88
2023/10/22 08:31:00;;;;;;;0.40;0.40;;;11.40;99.90;;;;;;5090554;28;20411;-87
2023/10/22 08:33:26;;;;;;;0.25;0.25;;;11.60;99.90;;;;;;5062189;28;20570;-86
2023/10/22 08:35:53;;;;;;;0.40;0.40;;;11.40;99.90;;;;;;5082207;28;20067;-88
2023/10/22 08:38:20;;;;;;;0.45;0.45;;;11.80;99.90;;;;;;5080852;28;20039;-89
2023/10/22 08:40:46;;;;;;;0.40;0.40;;;;;;;;;;5046952;28;20102;-87
2023/10/22 08:43:18;;;;;;;0.30;0.30;;;11.60;99.90;;;;;;5082430;28;20078;-88
2023/10/22 08:45:55;;;;;;;1.38;1.27;;;13.00;99.90;;;;;;5079458;28;20545;-86
2023/10/22 08:48:31;;;;;;;0.30;0.30;;;11.80;99.90;;;;;;5080902;28;20059;-87
2023/10/22 08:51:01;;;;;;;0.30;0.30;;;11.90;99.90;;;;;;5066376;28;20048;-85
2023/10/22 08:53:28;;;;;;;0.40;0.40;;;11.80;99.90;;;;;;5062160;28;20426;-85
2023/10/22 08:55:58;;;;;;;0.40;0.40;;;12.00;99.90;;;;;;5060648;28;20059;-84
2023/10/22 08:58:24;;;;;;;0.63;0.63;;;11.90;99.90;;;;;;5068701;28;20049;-85
2023/10/22 09:00:51;;;;;;;0.40;0.40;;;12.60;99.90;;;;;;5077691;28;20132;-84
2023/10/22 09:03:24;;;;;;;0.30;0.30;;;12.10;99.90;;;;;;5080894;28;20048;-84
2023/10/22 09:05:51;;;;;;;0.52;0.52;;;12.10;99.90;;;;;;5080392;28;20059;-84
2023/10/22 09:08:42;;;;;;;0.47;0.47;;;12.10;99.90;;;;;;5061249;28;20044;-84
2023/10/22 09:11:20;;;;;;;0.30;0.30;;;12.20;99.90;;;;;;5078450;28;20040;-85
2023/10/22 09:13:48;;;;;;;0.30;0.30;;;12.10;99.90;;;;;;5111335;27;20068;-86
2023/10/22 09:16:33;;;;;;;0.20;0.20;;;12.20;99.90;;;;;;5083572;28;20060;-86
2023/10/22 09:19:02;;;;;;;0.50;0.50;;;12.10;99.90;;;;;;5117396;27;20047;-85
2023/10/22 09:21:47;;;;;;;0.32;0.32;;;12.50;99.90;;;;;;5064503;28;20449;-87
2023/10/22 09:24:19;;;;;;;0.85;0.85;;;14.40;99.90;;;;;;5099329;28;20056;-85
2023/10/22 09:26:50;;;;;;;0.30;0.30;;;12.40;99.90;;;;;;5083285;28;20056;-85
2023/10/22 09:29:21;;;;;;;0.38;0.38;;;12.40;99.90;;;;;;5047013;28;20041;-87
2023/10/22 09:31:53;;;;;;;0.40;0.40;;;12.60;99.90;;;;;;5081641;28;20079;-85
2023/10/22 09:34:31;;;;;;;0.40;0.40;;;12.60;99.90;;;;;;5073752;28;20051;-85
2023/10/22 09:36:58;;;;;;;0.25;0.25;;;12.70;99.90;;;;;;5100932;28;20044;-86
2023/10/22 09:39:35;;;;;;;0.73;0.60;;;12.60;99.90;;;;;;5073405;28;20048;-85
2023/10/22 09:42:05;;;;;;;0.20;0.20;;;12.80;99.90;;;;;;5065529;28;20090;-85
2023/10/22 09:44:36;;;;;;;0.55;0.52;;;12.80;99.90;;;;;;5076586;28;20719;-84
2023/10/22 09:47:03;;;;;;;0.30;0.30;;;12.90;99.90;;;;;;5092528;28;20115;-88
2023/10/22 09:49:37;;;;;;;0.30;0.30;;;13.00;99.90;;;;;;5074987;28;20079;-85
2023/10/22 09:52:06;;;;;;;0.40;0.40;;;13.50;99.90;;;;;;5088620;28;20055;-86
2023/10/22 09:54:37;;;;;;;0.20;0.20;;;13.20;99.90;;;;;;5038851;28;20048;-85
2023/10/22 09:57:14;;;;;;;0.20;0.20;;;13.50;99.90;;;;;;5057508;28;20052;-84
2023/10/22 09:59:41;;;;;;;0.20;0.20;;;13.90;99.90;;;;;;5072108;28;20060;-84
2023/10/22 10:02:16;;;;;;;0.30;0.30;;;13.40;99.90;;;;;;5080472;28;20102;-85
2023/10/22 10:04:47;;;;;;;0.20;0.20;;;12.00;99.90;;;;;;5077343;28;20044;-86
2023/10/22 10:07:22;;;;;;;0.30;0.30;;;13.00;99.90;;;;;;5059547;28;20052;-85
2023/10/22 10:09:51;;;;;;;0.28;0.28;;;13.20;99.90;;;;;;5056933;28;20045;-86
2023/10/22 10:12:17;;;;;;;0.30;0.30;;;13.50;99.90;;;;;;5075001;28;20083;-86
2023/10/22 10:14:53;;;;;;;2.65;0.77;;;13.50;99.90;;;;;;5061490;28;20126;-86
2023/10/22 10:17:24;;;;;;;5.20;1.38;;;13.70;99.90;;;;;;5063103;28;20541;-84
2023/10/22 10:20:23;;;;;;;0.30;0.30;;;13.00;99.90;;;;;;5078578;28;20048;-86
2023/10/22 10:23:06;;;;;;;0.30;0.30;;;12.80;99.90;;;;;;5067734;28;20059;-85
2023/10/22 10:25:36;;;;;;;0.20;0.20;;;14.10;99.90;;;;;;5076317;28;20107;-84
2023/10/22 10:28:09;;;;;;;0.40;0.40;;;13.70;99.90;;;;;;5043778;28;20059;-85
2023/10/22 10:30:36;;;;;;;0.30;0.30;;;13.60;99.90;;;;;;5073141;28;20133;-84
2023/10/22 10:33:03;;;;;;;0.35;0.35;;;13.50;99.90;;;;;;5095164;28;20071;-84
2023/10/22 10:35:46;;;;;;;0.40;0.40;;;13.70;99.90;;;;;;5066796;28;20056;-86
2023/10/22 10:38:15;;;;;;;0.30;0.30;;;14.00;99.90;;;;;;5072352;28;21371;-87
2023/10/22 10:40:51;;;;;;;0.40;0.40;;;13.40;99.90;;;;;;5057426;28;20705;-87
2023/10/22 10:44:00;;;;;;;0.40;0.40;;;13.40;99.90;;;;;;5058508;28;20075;-85
2023/10/22 10:46:32;;;;;;;0.20;0.20;;;13.40;99.90;;;;;;5078017;28;20044;-86
2023/10/22 10:49:01;;;;;;;0.30;0.30;;;15.10;99.90;;;;;;5074018;28;20049;-87
2023/10/22 10:51:27;;;;;;;0.20;0.20;;;13.60;99.90;;;;;;5090723;28;20020;-85
2023/10/22 10:54:04;;;;;;;0.52;0.52;;;13.20;99.90;;;;;;5086812;28;20064;-84
2023/10/22 10:56:52;;;;;;;0.30;0.30;;;13.50;99.90;;;;;;5099959;28;20044;-84
2023/10/22 10:59:35;;;;;;;0.30;0.30;;;13.10;99.90;;;;;;5097278;28;20083;-86
2023/10/22 11:02:16;;;;;;;0.25;0.25;;;13.80;99.90;;;;;;5094114;28;20080;-84
2023/10/22 11:04:46;;;;;;;0.20;0.20;;;13.00;99.90;;;;;;5113606;28;20078;-85
2023/10/22 11:07:12;;;;;;;0.20;0.20;;;13.00;99.90;;;;;;5098296;28;20075;-86
2023/10/22 11:09:39;;;;;;;0.30;0.30;;;13.60;99.90;;;;;;5077603;28;20036;-84
2023/10/22 11:12:07;;;;;;;2.17;0.90;;;13.00;99.90;;;;;;5095083;28;20058;-84
2023/10/22 11:14:37;;;;;;;0.30;0.30;;;13.40;99.90;;;;;;5083369;28;20060;-84
2023/10/22 11:17:04;;;;;;;0.20;0.20;;;13.10;99.90;;;;;;5100931;28;20043;-85
2023/10/22 11:19:33;;;;;;;0.30;0.30;;;14.80;99.90;;;;;;5095806;28;20058;-85
2023/10/22 11:22:00;;;;;;;1.10;1.05;;;14.10;99.90;;;;;;5096061;28;20044;-85
2023/10/22 11:24:32;;;;;;;0.45;0.45;;;13.80;99.90;;;;;;5099486;28;20059;-85
2023/10/22 11:27:00;;;;;;;0.22;0.22;;;13.80;99.90;;;;;;5079642;28;20059;-86
2023/10/22 11:29:26;;;;;;;0.20;0.20;;;13.60;99.90;;;;;;5093841;28;20101;-85
2023/10/22 11:31:59;;;;;;;0.20;0.20;;;13.40;99.90;;;;;;5095459;28;20075;-85
2023/10/22 11:34:27;;;;;;;0.30;0.30;;;13.60;99.90;;;;;;5096092;28;20054;-85
2023/10/22 11:36:58;;;;;;;0.20;0.20;;;14.50;99.90;;;;;;5077324;28;20044;-83
2023/10/22 11:39:33;;;;;;;1.85;0.63;;;14.20;99.90;;;;;;5110008;28;20044;-85
2023/10/22 11:41:59;;;;;;;0.30;0.30;;;15.10;99.90;;;;;;5109345;27;20942;-86
2023/10/22 11:44:32;;;;;;;;;;;14.10;99.90;;;;;;5102299;28;20480;-85
2023/10/22 11:47:03;;;;;;;0.30;0.30;;;14.70;99.90;;;;;;5111303;27;19920;-83
2023/10/22 11:49:29;;;;;;;0.30;0.30;;;14.50;99.90;;;;;;5112460;27;20121;-84
2023/10/22 11:51:54;;;;;;;0.30;0.30;;;14.40;99.90;;;;;;5094421;28;20075;-85
2023/10/22 11:54:46;;;;;;;0.17;0.17;;;14.60;99.90;;;;;;5080674;28;20487;-84
2023/10/22 11:57:13;;;;;;;0.30;0.30;;;15.20;99.90;;;;;;5077524;28;20650;-85
2023/10/22 11:59:39;;;;;;;0.20;0.20;;;12.90;99.90;;;;;;5056320;28;20063;-84
2023/10/22 12:02:05;;;;;;;0.30;0.30;;;13.90;99.90;;;;;;5085522;28;20193;-85
2023/10/22 12:04:31;;;;;;;0.20;0.20;;;13.60;99.90;;;;;;5086527;28;20108;-84
2023/10/22 12:06:57;;;;;;;0.22;0.22;;;13.70;99.90;;;;;;5074120;28;20106;-84
2023/10/22 12:09:23;;;;;;;0.20;0.20;;;13.40;99.90;;;;;;5078949;28;20039;-85
2023/10/22 12:11:53;;;;;;;0.40;0.40;;;13.70;99.90;;;;;;5062528;28;20059;-83
2023/10/22 12:14:24;;;;;;;0.40;0.40;;;13.80;99.90;;;;;;5077174;28;20105;-84
2023/10/22 12:16:50;;;;;;;0.20;0.20;;;13.70;99.90;;;;;;5097010;28;20298;-84
2023/10/22 12:19:16;;;;;;;0.35;0.35;;;13.50;99.90;;;;;;5082525;28;20136;-85
2023/10/22 12:21:41;;;;;;;0.30;0.30;;;13.50;99.90;;;;;;5081147;28;20086;-84
2023/10/22 12:24:07;;;;;;;0.30;0.30;;;13.50;99.90;;;;;;5042225;28;20114;-84
2023/10/22 12:26:33;;;;;;;0.30;0.30;;;13.40;99.90;;;;;;5064134;28;20360;-82
2023/10/22 12:28:59;;;;;;;0.20;0.20;;;13.50;99.90;;;;;;5068755;28;20054;-84
2023/10/22 12:31:25;;;;;;;0.40;0.40;;;13.70;99.90;;;;;;5065222;28;20037;-85
2023/10/22 12:33:50;;;;;;;0.35;0.35;;;13.50;99.90;;;;;;5064809;28;20093;-84
2023/10/22 12:36:17;;;;;;;0.38;0.38;;;14.20;99.90;;;;;;5082286;28;20036;-84
2023/10/22 12:38:43;;;;;;;0.20;0.20;;;13.50;99.90;;;;;;5066392;28;20033;-83
2023/10/22 12:41:08;;;;;;;0.30;0.30;;;13.60;99.90;;;;;;5066158;28;20070;-82
2023/10/22 12:43:34;;;;;;;0.20;0.20;;;14.20;99.90;;;;;;5079798;28;20598;-83
2023/10/22 12:46:04;;;;;;;0.30;0.30;;;13.80;99.90;;;;;;5103102;27;20071;-84
2023/10/22 12:48:29;;;;;;;0.40;0.40;;;14.00;99.90;;;;;;5090950;28;20067;-86
2023/10/22 12:50:55;;;;;;;0.22;0.22;;;13.90;99.90;;;;;;5064380;28;20369;-82
2023/10/22 12:53:21;;;;;;;0.30;0.30;;;13.80;99.90;;;;;;5083705;28;20131;-85
2023/10/22 12:55:57;;;;;;;0.88;0.82;;;13.90;99.90;;;;;;5068814;28;20135;-84
2023/10/22 12:58:24;;;;;;;0.30;0.30;;;15.10;99.90;;;;;;5106206;27;20169;-85
2023/10/22 13:00:49;;;;;;;0.50;0.50;;;14.30;99.90;;;;;;5064060;28;20039;-86